Hardin, Texas
Current Conditions -  °F | °C
As of 1:55 PM on Thursday 30 Oct 2014 (Local Time) from K6R3 Reporting Station
Clear Clear  
Wind Chill: 74°   Ceiling: Unl
Heat Index: 74°   Visibility: 7mi
Dew Point: 55°   Wind: 0mph
Humidity: 50%   Direction: NA
Pressure: 30.11"   Gusts: NA
Location:  30.15°N, 94.74°W
Report Text: K6R3 301855Z AUTO 00000KT 7SM CLR 24/13 A3011 RMK AO2 T02360125
Loading
Personal Weather Stations






























Interactive Weather Map
Tropical Storm Tracking
New forecast layout! Learn more

10-Day Weather Forecast

Advertisements
Track Severe Weather on mobile